createdAt,value
2019-02-20T00:00:56.971Z,76.77
2019-02-20T00:03:24.511Z,75.60
2019-02-20T00:05:52.035Z,76.63
2019-02-20T00:08:20.169Z,74.23
2019-02-20T00:10:47.699Z,70.77
2019-02-20T00:13:15.204Z,79.50
2019-02-20T00:15:42.748Z,75.37
2019-02-20T00:18:10.273Z,75.57
2019-02-20T00:20:37.784Z,69.83
2019-02-20T00:23:05.348Z,66.67
2019-02-20T00:25:32.804Z,75.50
2019-02-20T00:28:00.310Z,67.87
2019-02-20T00:30:27.864Z,70.37
2019-02-20T00:32:55.368Z,73.10
2019-02-20T00:35:22.880Z,83.37
2019-02-20T00:37:50.377Z,74.77
2019-02-20T00:40:17.911Z,66.10
2019-02-20T00:42:45.392Z,68.63
2019-02-20T00:45:47.805Z,68.80
2019-02-20T00:48:25.653Z,70.67
2019-02-20T00:50:58.606Z,69.37
2019-02-20T00:53:30.630Z,69.57
2019-02-20T00:55:58.156Z,65.93
2019-02-20T00:58:25.696Z,72.27
2019-02-20T01:00:53.187Z,66.07
2019-02-20T01:03:20.660Z,68.10
2019-02-20T01:05:48.284Z,64.97
2019-02-20T01:08:15.786Z,65.57
2019-02-20T01:10:43.272Z,59.83
2019-02-20T01:13:10.808Z,63.27
2019-02-20T01:15:38.343Z,51.27
2019-02-20T01:18:05.828Z,51.17
2019-02-20T01:20:33.381Z,52.80
2019-02-20T01:23:01.356Z,54.23
2019-02-20T01:25:28.903Z,54.43
2019-02-20T01:27:56.466Z,57.87
2019-02-20T01:30:23.980Z,52.50
2019-02-20T01:32:51.488Z,60.87
2019-02-20T01:35:19.024Z,60.60
2019-02-20T01:37:46.526Z,57.90
2019-02-20T01:40:14.012Z,56.70
2019-02-20T01:42:41.556Z,64.67
2019-02-20T01:45:09.084Z,60.10
2019-02-20T01:47:36.562Z,59.13
2019-02-20T01:50:04.452Z,60.93
2019-02-20T01:52:31.960Z,65.67
2019-02-20T01:54:59.446Z,67.07
2019-02-20T01:57:26.950Z,67.83
2019-02-20T01:59:54.458Z,71.53
2019-02-20T02:02:22.016Z,65.80
2019-02-20T02:04:49.534Z,68.37
2019-02-20T02:07:17.019Z,70.30
2019-02-20T02:09:44.532Z,66.63
2019-02-20T02:12:12.030Z,74.57
2019-02-20T02:14:39.516Z,71.77
2019-02-20T02:17:07.022Z,74.23
2019-02-20T02:19:34.516Z,75.97
2019-02-20T02:22:02.023Z,70.33
2019-02-20T02:24:29.530Z,66.10
2019-02-20T02:26:57.008Z,60.10
2019-02-20T02:29:24.544Z,66.67
2019-02-20T02:31:52.071Z,70.50
2019-02-20T02:34:19.590Z,67.07
2019-02-20T02:36:47.082Z,62.90
2019-02-20T02:39:14.616Z,55.37
2019-02-20T02:41:42.080Z,61.03
2019-02-20T02:44:09.634Z,51.03
2019-02-20T02:46:37.141Z,54.00
2019-02-20T02:49:04.623Z,52.53
2019-02-20T02:51:32.134Z,44.53
2019-02-20T02:53:59.676Z,43.20
2019-02-20T02:56:27.214Z,43.10
2019-02-20T02:58:54.706Z,46.70
2019-02-20T03:01:22.193Z,56.33
2019-02-20T03:03:49.697Z,45.10
2019-02-20T03:06:17.189Z,43.33
2019-02-20T03:08:44.696Z,47.80
2019-02-20T03:11:12.190Z,47.37
2019-02-20T03:13:39.705Z,44.80
2019-02-20T03:16:07.283Z,39.13
2019-02-20T03:18:34.713Z,41.47
2019-02-20T03:21:02.230Z,47.63
2019-02-20T03:23:29.744Z,42.50
2019-02-20T03:25:57.228Z,47.20
2019-02-20T03:28:24.703Z,42.27
2019-02-20T03:30:52.253Z,42.80
2019-02-20T03:33:19.751Z,41.53
2019-02-20T03:35:47.228Z,46.67
2019-02-20T03:38:15.186Z,39.80
2019-02-20T03:40:42.698Z,41.27
2019-02-20T03:43:10.182Z,48.73
2019-02-20T03:45:37.712Z,44.00
2019-02-20T03:48:05.209Z,37.50
2019-02-20T03:50:32.703Z,37.93
2019-02-20T03:53:00.244Z,35.80
2019-02-20T03:55:27.948Z,50.47
2019-02-20T03:57:55.431Z,47.97
2019-02-20T04:00:22.964Z,44.93
2019-02-20T04:02:50.452Z,48.90
2019-02-20T04:05:17.941Z,46.17
2019-02-20T04:07:45.468Z,47.50
2019-02-20T04:10:12.948Z,55.63
2019-02-20T04:12:40.438Z,59.83
2019-02-20T04:15:08.066Z,51.77
2019-02-20T04:17:35.573Z,57.50
2019-02-20T04:20:03.914Z,47.47
2019-02-20T04:22:31.450Z,39.53
2019-02-20T04:24:58.941Z,45.47
2019-02-20T04:27:26.440Z,47.70
2019-02-20T04:29:53.948Z,44.00
2019-02-20T04:32:21.493Z,49.77
2019-02-20T04:34:49.011Z,44.27
2019-02-20T04:37:16.472Z,40.30
2019-02-20T04:39:44.024Z,45.13
2019-02-20T04:42:11.554Z,35.03
2019-02-20T04:44:39.062Z,39.07
2019-02-20T04:47:06.573Z,33.83
2019-02-20T04:49:34.061Z,35.20
2019-02-20T04:52:01.647Z,29.67
2019-02-20T04:54:29.092Z,31.63
2019-02-20T04:56:56.583Z,28.90
2019-02-20T04:59:24.081Z,27.40
2019-02-20T05:01:51.575Z,23.37
2019-02-20T05:04:19.152Z,32.67
2019-02-20T05:06:46.711Z,17.80
2019-02-20T05:09:14.201Z,23.50
2019-02-20T05:11:41.692Z,19.00
2019-02-20T05:14:09.231Z,14.60
2019-02-20T05:16:36.776Z,18.17
2019-02-20T05:19:04.270Z,18.43
2019-02-20T05:21:31.802Z,14.60
2019-02-20T05:23:59.305Z,12.77
2019-02-20T05:26:26.828Z,19.03
2019-02-20T05:28:54.366Z,17.80
2019-02-20T05:31:21.828Z,14.70
2019-02-20T05:33:49.292Z,15.77
2019-02-20T05:36:17.107Z,13.60
2019-02-20T05:38:44.626Z,13.80
2019-02-20T05:41:12.108Z,17.20
2019-02-20T05:43:39.600Z,23.83
2019-02-20T05:46:07.125Z,14.93
2019-02-20T05:48:34.765Z,18.00
2019-02-20T05:51:02.346Z,19.83
2019-02-20T05:53:29.888Z,32.07
2019-02-20T05:55:57.423Z,35.13
2019-02-20T05:58:24.883Z,27.23
2019-02-20T06:00:52.430Z,22.83
2019-02-20T06:03:19.963Z,24.27
2019-02-20T06:05:48.375Z,25.63
2019-02-20T06:08:16.132Z,29.30
2019-02-20T06:10:43.642Z,27.57
2019-02-20T06:13:11.160Z,25.17
2019-02-20T06:15:38.737Z,27.87
2019-02-20T06:18:06.223Z,25.20
2019-02-20T06:20:33.714Z,28.07
2019-02-20T06:23:01.247Z,23.37
2019-02-20T06:25:28.741Z,25.57
2019-02-20T06:27:56.226Z,29.33
2019-02-20T06:30:23.786Z,20.63
2019-02-20T06:32:51.275Z,29.37
2019-02-20T06:35:18.763Z,25.37
2019-02-20T06:37:46.282Z,26.17
2019-02-20T06:40:13.787Z,26.07
2019-02-20T06:42:41.276Z,28.70
2019-02-20T06:45:09.035Z,32.43
2019-02-20T06:47:36.551Z,29.70
2019-02-20T06:50:04.484Z,18.40
2019-02-20T06:52:32.018Z,34.90
2019-02-20T06:54:59.518Z,20.00
2019-02-20T06:57:27.082Z,26.70
2019-02-20T06:59:54.589Z,18.60
2019-02-20T07:02:22.086Z,22.77
2019-02-20T07:05:45.697Z,21.77
2019-02-20T07:09:04.814Z,17.20
2019-02-20T07:12:09.118Z,16.87
2019-02-20T07:15:20.849Z,17.47
2019-02-20T07:18:20.321Z,16.20
2019-02-20T07:21:16.018Z,23.97
2019-02-20T07:24:18.481Z,15.23
2019-02-20T07:27:29.675Z,18.77
2019-02-20T07:30:04.877Z,17.97
2019-02-20T07:32:32.394Z,14.03
2019-02-20T07:34:59.928Z,17.13
2019-02-20T07:37:27.547Z,13.50
2019-02-20T07:39:55.002Z,15.80
2019-02-20T07:42:22.474Z,21.57
2019-02-20T07:44:50.020Z,13.97
2019-02-20T07:47:17.523Z,12.43
2019-02-20T07:49:45.004Z,15.17
2019-02-20T07:52:12.529Z,12.10
2019-02-20T07:54:40.006Z,10.23
2019-02-20T07:57:07.513Z,10.10
2019-02-20T07:59:35.053Z,12.80
2019-02-20T08:02:02.597Z,17.63
2019-02-20T08:04:30.130Z,9.30
2019-02-20T08:06:57.629Z,9.43
2019-02-20T08:09:25.144Z,10.47
2019-02-20T08:11:52.680Z,13.00
2019-02-20T08:14:20.218Z,9.80
2019-02-20T08:16:52.339Z,10.63
2019-02-20T08:19:17.051Z,14.17
2019-02-20T08:21:44.574Z,10.73
2019-02-20T08:24:12.140Z,10.53
2019-02-20T08:26:39.686Z,14.10
2019-02-20T08:29:07.238Z,12.50
2019-02-20T08:31:36.190Z,13.53
2019-02-20T08:34:03.710Z,12.47
2019-02-20T08:36:31.199Z,6.00
2019-02-20T08:38:58.764Z,8.70
2019-02-20T08:41:26.332Z,17.57
2019-02-20T08:43:53.814Z,7.80
2019-02-20T08:46:21.360Z,14.00
2019-02-20T08:48:48.873Z,12.37
2019-02-20T08:51:16.360Z,17.77
2019-02-20T08:53:43.859Z,6.97
2019-02-20T08:56:11.372Z,18.47
2019-02-20T08:58:39.051Z,5.43
2019-02-20T09:01:06.592Z,8.70
2019-02-20T09:03:38.114Z,7.63
2019-02-20T09:06:05.666Z,8.80
2019-02-20T09:08:33.173Z,7.97
2019-02-20T09:11:00.709Z,5.70
2019-02-20T09:13:28.238Z,6.63
2019-02-20T09:15:55.717Z,9.57
2019-02-20T09:18:23.259Z,7.43
2019-02-20T09:20:50.761Z,6.23
2019-02-20T09:23:18.237Z,10.03
2019-02-20T09:25:45.869Z,8.70
2019-02-20T09:28:13.432Z,10.20
2019-02-20T09:30:40.966Z,15.23
2019-02-20T09:33:08.480Z,19.80
2019-02-20T09:35:36.087Z,11.83
2019-02-20T09:38:03.599Z,11.33
2019-02-20T09:40:31.195Z,22.43
2019-02-20T09:42:58.788Z,6.07
2019-02-20T09:45:26.281Z,6.93
2019-02-20T09:47:53.812Z,12.10
2019-02-20T09:50:21.339Z,11.33
2019-02-20T09:52:52.309Z,9.97
2019-02-20T09:55:18.125Z,12.17
2019-02-20T09:57:45.790Z,14.43
2019-02-20T10:00:13.883Z,12.13
2019-02-20T10:02:41.421Z,15.40
2019-02-20T10:05:09.215Z,7.67
2019-02-20T10:07:36.735Z,10.00
2019-02-20T10:10:04.541Z,9.63
2019-02-20T10:12:32.049Z,12.30
2019-02-20T10:14:59.518Z,15.67
2019-02-20T10:17:27.030Z,12.67
2019-02-20T10:19:54.534Z,17.87
2019-02-20T10:22:23.549Z,11.17
2019-02-20T10:24:50.990Z,12.90
2019-02-20T10:27:18.667Z,13.70
2019-02-20T10:29:46.204Z,12.90
2019-02-20T10:32:13.757Z,10.10
2019-02-20T10:34:41.270Z,11.90
2019-02-20T10:37:08.880Z,11.07
2019-02-20T10:39:36.358Z,10.37
2019-02-20T10:42:03.847Z,18.17
2019-02-20T10:44:31.483Z,9.57
2019-02-20T10:46:59.053Z,9.30
2019-02-20T10:49:26.606Z,23.83
2019-02-20T10:51:54.199Z,10.90
2019-02-20T10:54:21.906Z,15.53
2019-02-20T10:56:49.389Z,17.80
2019-02-20T10:59:16.984Z,14.03
2019-02-20T11:01:44.486Z,10.90
2019-02-20T11:04:12.047Z,13.17
2019-02-20T11:06:40.326Z,10.83
2019-02-20T11:09:07.816Z,12.07
2019-02-20T11:11:35.351Z,18.43
2019-02-20T11:14:02.893Z,12.83
2019-02-20T11:16:30.381Z,20.93
2019-02-20T11:18:57.991Z,17.93
2019-02-20T11:21:25.531Z,16.20
2019-02-20T11:23:53.063Z,12.63
2019-02-20T11:26:20.640Z,14.33
2019-02-20T11:28:48.188Z,19.37
2019-02-20T11:31:15.677Z,13.03
2019-02-20T11:33:43.190Z,10.33
2019-02-20T11:36:10.756Z,13.83
2019-02-20T11:38:38.257Z,26.10
2019-02-20T11:41:06.201Z,12.33
2019-02-20T11:43:33.747Z,12.87
2019-02-20T11:46:01.275Z,18.47
2019-02-20T11:48:28.845Z,10.23
2019-02-20T11:50:56.349Z,11.53
2019-02-20T11:53:23.849Z,14.60
2019-02-20T11:55:51.388Z,13.50
2019-02-20T11:58:18.916Z,12.37
2019-02-20T12:00:46.433Z,10.03
2019-02-20T12:03:13.959Z,17.53
2019-02-20T12:05:43.252Z,13.60
2019-02-20T12:08:10.855Z,19.00
2019-02-20T12:10:38.398Z,14.97
2019-02-20T12:13:06.052Z,18.50
2019-02-20T12:15:33.659Z,17.43
2019-02-20T12:18:01.305Z,10.70
2019-02-20T12:20:29.233Z,11.47
2019-02-20T12:22:57.153Z,11.60
2019-02-20T12:25:24.701Z,11.13
2019-02-20T12:27:52.183Z,23.30
2019-02-20T12:30:19.701Z,20.43
2019-02-20T12:32:47.245Z,17.50
2019-02-20T12:35:14.765Z,9.43
2019-02-20T12:37:42.282Z,14.57
2019-02-20T12:40:09.928Z,9.70
2019-02-20T12:42:37.424Z,6.63
2019-02-20T12:45:05.201Z,18.87
2019-02-20T12:47:32.833Z,5.97
2019-02-20T12:50:00.322Z,15.20
2019-02-20T12:52:27.807Z,10.33
2019-02-20T12:54:55.361Z,14.67
2019-02-20T12:57:23.065Z,10.53
2019-02-20T12:59:50.567Z,16.27
2019-02-20T13:02:18.133Z,16.60
2019-02-20T13:04:45.648Z,14.77
2019-02-20T13:07:13.122Z,10.50
2019-02-20T13:09:40.705Z,11.27
2019-02-20T13:12:08.199Z,12.10
2019-02-20T13:14:35.687Z,15.23
2019-02-20T13:17:03.203Z,16.10
2019-02-20T13:19:30.783Z,8.17
2019-02-20T13:21:58.273Z,21.83
2019-02-20T13:24:25.802Z,12.40
2019-02-20T13:26:53.396Z,20.00
2019-02-20T13:29:20.849Z,23.63
2019-02-20T13:31:48.375Z,11.33
2019-02-20T13:34:15.934Z,22.50
2019-02-20T13:36:43.406Z,29.13
2019-02-20T13:39:10.939Z,22.27
2019-02-20T13:41:38.447Z,16.40
2019-02-20T13:44:05.999Z,14.00
2019-02-20T13:46:33.549Z,24.60
2019-02-20T13:49:01.067Z,21.30
2019-02-20T13:51:28.906Z,19.03
2019-02-20T13:53:56.418Z,17.37
2019-02-20T13:56:23.995Z,14.57
2019-02-20T13:58:51.495Z,13.90
2019-02-20T14:01:19.035Z,16.60
2019-02-20T14:03:46.555Z,12.23
2019-02-20T14:06:15.121Z,15.20
2019-02-20T14:08:42.711Z,16.57
2019-02-20T14:11:10.395Z,16.40
2019-02-20T14:13:37.911Z,8.97
2019-02-20T14:16:05.453Z,16.33
2019-02-20T14:18:32.948Z,17.47
2019-02-20T14:21:00.468Z,28.80
2019-02-20T14:23:29.650Z,21.23
2019-02-20T14:25:57.283Z,17.07
2019-02-20T14:28:25.253Z,12.80
2019-02-20T14:30:52.746Z,11.23
2019-02-20T14:33:20.236Z,9.20
2019-02-20T14:35:47.772Z,13.17
2019-02-20T14:38:15.290Z,13.37
2019-02-20T14:40:42.771Z,8.80
2019-02-20T14:43:10.267Z,12.37
2019-02-20T14:45:37.821Z,12.80
2019-02-20T14:48:05.386Z,16.47
2019-02-20T14:50:32.893Z,23.27
2019-02-20T14:53:00.422Z,18.80
2019-02-20T14:55:27.906Z,9.03
2019-02-20T14:57:55.419Z,11.73
2019-02-20T15:00:22.993Z,15.00
2019-02-20T15:02:50.492Z,16.47
2019-02-20T15:05:18.497Z,16.63
2019-02-20T15:07:46.018Z,17.37
2019-02-20T15:10:13.601Z,13.07
2019-02-20T15:12:41.287Z,11.77
2019-02-20T15:15:10.757Z,12.83
2019-02-20T15:17:38.463Z,14.40
2019-02-20T15:20:06.225Z,11.50
2019-02-20T15:22:34.493Z,11.73
2019-02-20T15:25:02.058Z,11.10
2019-02-20T15:27:29.648Z,13.17
2019-02-20T15:29:57.191Z,13.70
2019-02-20T15:32:24.755Z,14.33
2019-02-20T15:34:52.363Z,16.97
2019-02-20T15:37:19.901Z,16.57
2019-02-20T15:39:47.907Z,11.63
2019-02-20T15:42:15.500Z,6.90
2019-02-20T15:44:43.031Z,9.03
2019-02-20T15:47:10.571Z,19.00
2019-02-20T15:49:38.171Z,13.87
2019-02-20T15:52:05.732Z,21.30
2019-02-20T15:54:33.322Z,9.87
2019-02-20T15:57:00.889Z,15.27
2019-02-20T15:59:28.810Z,16.33
2019-02-20T16:01:56.313Z,10.77
2019-02-20T16:04:24.063Z,16.47
2019-02-20T16:06:51.947Z,15.07
2019-02-20T16:09:19.817Z,18.37
2019-02-20T16:11:47.327Z,21.73
2019-02-20T16:14:14.853Z,29.80
2019-02-20T16:16:42.664Z,19.43
2019-02-20T16:19:10.175Z,25.60
2019-02-20T16:21:37.757Z,32.30
2019-02-20T16:24:05.383Z,14.97
2019-02-20T16:26:32.945Z,6.53
2019-02-20T16:29:00.451Z,16.43
2019-02-20T16:31:28.015Z,16.50
2019-02-20T16:33:55.516Z,14.13
2019-02-20T16:36:23.249Z,16.80
2019-02-20T16:38:51.799Z,8.57
2019-02-20T16:41:19.558Z,19.23
2019-02-20T16:43:48.670Z,10.17
2019-02-20T16:46:16.968Z,14.33
2019-02-20T16:48:44.635Z,16.27
2019-02-20T16:51:15.831Z,11.73
2019-02-20T16:53:43.379Z,13.27
2019-02-20T16:56:10.945Z,18.43
2019-02-20T16:58:38.694Z,15.47
2019-02-20T17:01:07.251Z,17.00
2019-02-20T17:03:34.897Z,16.73
2019-02-20T17:06:02.421Z,23.27
2019-02-20T17:08:29.936Z,13.70
2019-02-20T17:10:57.677Z,16.97
2019-02-20T17:13:25.165Z,12.53
2019-02-20T17:15:55.404Z,19.33
2019-02-20T17:18:23.043Z,13.60
2019-02-20T17:20:50.556Z,16.03
2019-02-20T17:23:18.051Z,16.70
2019-02-20T17:25:45.671Z,19.20
2019-02-20T17:28:13.475Z,14.57
2019-02-20T17:30:41.176Z,14.67
2019-02-20T17:33:08.727Z,17.33
2019-02-20T17:35:36.315Z,18.23
2019-02-20T17:38:03.859Z,20.47
2019-02-20T17:40:31.365Z,18.37
2019-02-20T17:42:58.905Z,26.60
2019-02-20T17:45:26.885Z,13.00
2019-02-20T17:47:54.385Z,13.90
2019-02-20T17:50:22.043Z,19.37
2019-02-20T17:52:49.605Z,24.37
2019-02-20T17:55:17.098Z,19.70
2019-02-20T17:57:44.613Z,23.63
2019-02-20T18:00:12.784Z,27.63
2019-02-20T18:02:40.243Z,14.00
2019-02-20T18:05:07.909Z,16.17
2019-02-20T18:07:35.465Z,24.63
2019-02-20T18:10:03.519Z,23.63
2019-02-20T18:12:31.053Z,15.80
2019-02-20T18:14:58.591Z,30.73
2019-02-20T18:17:26.086Z,21.80
2019-02-20T18:19:53.611Z,21.43
2019-02-20T18:22:21.125Z,17.97
2019-02-20T18:24:48.637Z,19.70
2019-02-20T18:27:16.213Z,20.07
2019-02-20T18:29:43.757Z,18.57
2019-02-20T18:32:11.247Z,24.33
2019-02-20T18:34:38.780Z,11.17
2019-02-20T18:37:06.326Z,17.60
2019-02-20T18:39:33.847Z,29.30
2019-02-20T18:42:01.368Z,25.77
2019-02-20T18:44:28.935Z,14.37
2019-02-20T18:46:56.724Z,23.43
2019-02-20T18:49:24.376Z,14.23
2019-02-20T18:51:51.954Z,31.67
2019-02-20T18:54:21.315Z,22.03
2019-02-20T18:56:48.942Z,20.30
2019-02-20T18:59:16.495Z,25.43
2019-02-20T19:01:44.098Z,16.53
2019-02-20T19:04:11.610Z,24.27
2019-02-20T19:06:39.118Z,27.47
2019-02-20T19:09:11.629Z,30.67
2019-02-20T19:12:04.212Z,28.97
2019-02-20T19:15:28.559Z,21.87
2019-02-20T19:18:44.274Z,34.43
2019-02-20T19:21:31.397Z,33.23
2019-02-20T19:24:32.485Z,37.53
2019-02-20T19:27:32.291Z,22.43
2019-02-20T19:30:44.462Z,34.60
2019-02-20T19:33:59.963Z,32.93
2019-02-20T19:37:04.050Z,34.30
2019-02-20T19:39:55.773Z,29.07
2019-02-20T19:43:05.096Z,55.10
2019-02-20T19:46:05.450Z,37.30
2019-02-20T19:49:30.261Z,35.47
2019-02-20T19:52:28.344Z,27.53
2019-02-20T19:55:26.900Z,50.07
2019-02-20T19:58:55.243Z,36.10
2019-02-20T20:01:50.350Z,36.37
2019-02-20T20:04:56.718Z,32.93
2019-02-20T20:07:57.845Z,38.20
2019-02-20T20:10:56.625Z,25.20
2019-02-20T20:13:48.394Z,21.03
2019-02-20T20:17:19.164Z,22.47
2019-02-20T20:20:12.109Z,36.07
2019-02-20T20:23:12.445Z,32.43
2019-02-20T20:26:02.991Z,21.33
2019-02-20T20:29:09.789Z,24.53
2019-02-20T20:32:05.713Z,23.30
2019-02-20T20:34:58.583Z,29.47
2019-02-20T20:37:51.415Z,26.17
2019-02-20T20:40:57.620Z,33.13
2019-02-20T20:44:00.685Z,31.93
2019-02-20T20:47:12.172Z,31.80
2019-02-20T20:50:11.922Z,37.57
2019-02-20T20:53:12.964Z,37.23
2019-02-20T20:56:06.784Z,29.47
2019-02-20T20:58:58.462Z,99.73
2019-02-20T21:01:58.453Z,112.20
2019-02-20T21:04:55.930Z,87.33
2019-02-20T21:07:59.611Z,82.70
2019-02-20T21:11:03.950Z,207.80
2019-02-20T21:14:01.836Z,31.03
2019-02-20T21:17:10.219Z,117.63
2019-02-20T21:19:52.678Z,66.67
2019-02-20T21:22:53.870Z,152.23
2019-02-20T21:26:00.866Z,111.90
2019-02-20T21:29:13.524Z,51.43
2019-02-20T21:32:00.930Z,144.23
2019-02-20T21:35:19.070Z,106.57
2019-02-20T21:38:15.808Z,69.30
2019-02-20T21:41:33.914Z,43.97
2019-02-20T21:44:32.958Z,22.20
2019-02-20T21:47:27.386Z,33.20
2019-02-20T21:50:30.070Z,21.83
2019-02-20T21:53:50.405Z,18.27
2019-02-20T21:56:47.182Z,26.50
2019-02-20T21:59:50.102Z,28.30
2019-02-20T22:03:08.225Z,19.57
2019-02-20T22:06:03.787Z,33.73
2019-02-20T22:09:09.370Z,34.63
2019-02-20T22:12:11.952Z,15.40
2019-02-20T22:14:54.781Z,22.80
2019-02-20T22:18:10.122Z,22.20
2019-02-20T22:21:21.700Z,19.33
2019-02-20T22:24:23.371Z,8.67
2019-02-20T22:27:13.365Z,12.60
2019-02-20T22:30:37.980Z,15.40
2019-02-20T22:33:47.062Z,15.70
2019-02-20T22:37:10.827Z,21.63
2019-02-20T22:40:03.008Z,16.00
2019-02-20T22:43:18.470Z,11.40
2019-02-20T22:46:27.350Z,13.80
2019-02-20T22:49:07.982Z,16.50
2019-02-20T22:52:03.532Z,26.57
2019-02-20T22:55:18.937Z,16.70
2019-02-20T22:57:57.324Z,15.93
2019-02-20T23:01:12.162Z,24.30
2019-02-20T23:04:10.075Z,11.70
2019-02-20T23:06:48.468Z,14.40
2019-02-20T23:09:44.122Z,20.87
2019-02-20T23:12:52.452Z,15.03
2019-02-20T23:15:19.957Z,20.60
2019-02-20T23:17:47.460Z,22.50
2019-02-20T23:20:15.002Z,27.57
2019-02-20T23:22:42.494Z,37.13
2019-02-20T23:25:10.012Z,24.23
2019-02-20T23:27:37.537Z,22.10
2019-02-20T23:30:12.893Z,24.60
2019-02-20T23:32:35.647Z,22.10
2019-02-20T23:35:03.355Z,23.83
2019-02-20T23:37:30.850Z,31.03
2019-02-20T23:39:58.342Z,28.77
2019-02-20T23:42:25.843Z,34.90
2019-02-20T23:44:53.330Z,27.63
2019-02-20T23:47:20.858Z,21.67
2019-02-20T23:49:48.458Z,31.13
2019-02-20T23:52:16.030Z,23.60
2019-02-20T23:54:43.564Z,26.63
2019-02-20T23:57:11.063Z,27.57
2019-02-20T23:59:38.602Z,29.73
